createdAt,value
2023-01-13T00:01:00.021Z,2.17
2023-01-13T00:03:26.647Z,2.05
2023-01-13T00:05:53.323Z,1.73
2023-01-13T00:08:19.988Z,3.33
2023-01-13T00:10:48.527Z,2.72
2023-01-13T00:13:15.361Z,4.13
2023-01-13T00:15:42.423Z,1.17
2023-01-13T00:18:09.337Z,2.25
2023-01-13T00:20:36.118Z,2.85
2023-01-13T00:23:04.527Z,3.10
2023-01-13T00:25:31.237Z,3.88
2023-01-13T00:27:58.017Z,1.80
2023-01-13T00:30:24.647Z,1.35
2023-01-13T00:32:51.269Z,2.92
2023-01-13T00:35:18.099Z,2.50
2023-01-13T00:37:44.811Z,1.98
2023-01-13T00:40:12.085Z,2.53
2023-01-13T00:42:57.263Z,3.35
2023-01-13T00:45:24.035Z,3.28
2023-01-13T00:47:50.655Z,2.20
2023-01-13T00:50:17.445Z,2.63
2023-01-13T00:52:44.239Z,2.45
2023-01-13T00:55:10.963Z,1.17
2023-01-13T00:57:37.678Z,1.98
2023-01-13T01:00:04.889Z,3.35
2023-01-13T01:02:31.615Z,1.73
2023-01-13T01:05:00.185Z,1.58
2023-01-13T01:07:26.862Z,0.65
2023-01-13T01:09:53.494Z,2.28
2023-01-13T01:12:20.194Z,2.10
2023-01-13T01:14:46.927Z,3.25
2023-01-13T01:17:13.596Z,1.23
2023-01-13T01:19:40.358Z,0.98
2023-01-13T01:22:07.039Z,1.52
2023-01-13T01:24:33.758Z,0.50
2023-01-13T01:27:00.487Z,1.55
2023-01-13T01:29:27.270Z,1.35
2023-01-13T01:31:54.006Z,1.20
2023-01-13T01:34:20.640Z,3.30
2023-01-13T01:36:47.328Z,3.95
2023-01-13T01:39:14.131Z,0.98
2023-01-13T01:42:00.818Z,2.50
2023-01-13T01:44:42.490Z,0.80
2023-01-13T01:47:17.855Z,3.45
2023-01-13T01:49:48.816Z,1.60
2023-01-13T01:52:23.461Z,2.38
2023-01-13T01:55:05.049Z,3.10
2023-01-13T01:57:34.602Z,0.75
2023-01-13T02:00:02.249Z,1.48
2023-01-13T02:02:30.628Z,2.03
2023-01-13T02:04:58.120Z,3.20
2023-01-13T02:07:28.049Z,2.15
2023-01-13T02:09:56.860Z,0.70
2023-01-13T02:12:34.722Z,1.10
2023-01-13T02:15:07.670Z,1.42
2023-01-13T02:17:52.964Z,1.15
2023-01-13T02:20:34.856Z,2.65
2023-01-13T02:24:03.039Z,1.33
2023-01-13T02:26:45.243Z,3.38
2023-01-13T02:29:49.318Z,2.17
2023-01-13T02:32:34.044Z,4.22
2023-01-13T02:35:10.651Z,0.73
2023-01-13T02:37:40.620Z,0.90
2023-01-13T02:40:07.451Z,0.93
2023-01-13T02:42:55.197Z,1.63
2023-01-13T02:45:29.614Z,2.47
2023-01-13T02:48:00.137Z,0.70
2023-01-13T02:50:36.047Z,0.45
2023-01-13T02:53:08.684Z,3.50
2023-01-13T02:55:40.292Z,4.32
2023-01-13T02:58:10.562Z,1.75
2023-01-13T03:00:38.020Z,1.73
2023-01-13T03:03:04.628Z,0.82
2023-01-13T03:05:33.173Z,1.05
2023-01-13T03:08:11.808Z,0.80
2023-01-13T03:10:54.347Z,2.67
2023-01-13T03:13:36.027Z,0.73
2023-01-13T03:16:22.294Z,1.38
2023-01-13T03:19:07.528Z,0.52
2023-01-13T03:21:52.355Z,1.13
2023-01-13T03:24:32.512Z,1.48
2023-01-13T03:27:03.655Z,0.80
2023-01-13T03:29:41.293Z,1.20
2023-01-13T03:32:16.336Z,1.55
2023-01-13T03:34:49.805Z,0.82
2023-01-13T03:37:23.785Z,1.08
2023-01-13T03:39:57.768Z,0.88
2023-01-13T03:42:28.466Z,0.68
2023-01-13T03:47:46.479Z,2.65
2023-01-13T03:50:19.806Z,0.65
2023-01-13T03:53:10.123Z,0.73
2023-01-13T03:55:42.306Z,0.50
2023-01-13T03:58:15.043Z,1.05
2023-01-13T04:00:52.958Z,1.65
2023-01-13T04:03:47.004Z,0.63
2023-01-13T04:06:17.049Z,0.47
2023-01-13T04:08:51.572Z,0.98
2023-01-13T04:11:26.807Z,0.32
2023-01-13T04:13:54.548Z,0.50
2023-01-13T04:16:21.297Z,1.15
2023-01-13T04:18:50.277Z,0.82
2023-01-13T04:21:16.801Z,0.60
2023-01-13T04:23:43.360Z,0.70
2023-01-13T04:26:10.070Z,1.05
2023-01-13T04:28:36.680Z,0.40
2023-01-13T04:31:03.294Z,0.30
2023-01-13T04:33:30.039Z,0.63
2023-01-13T04:35:56.669Z,0.10
2023-01-13T04:38:23.451Z,0.20
2023-01-13T04:40:50.125Z,1.00
2023-01-13T04:43:17.266Z,1.00
2023-01-13T04:45:44.475Z,0.25
2023-01-13T04:48:11.349Z,1.10
2023-01-13T04:50:38.049Z,0.57
2023-01-13T04:53:05.044Z,1.50
2023-01-13T04:55:32.080Z,1.17
2023-01-13T04:58:07.173Z,0.30
2023-01-13T05:00:34.258Z,0.77
2023-01-13T05:03:02.956Z,1.27
2023-01-13T05:05:30.624Z,0.65
2023-01-13T05:07:57.988Z,0.20
2023-01-13T05:10:24.740Z,1.38
2023-01-13T05:13:09.960Z,0.90
2023-01-13T05:15:55.297Z,1.55
2023-01-13T05:18:21.913Z,1.67
2023-01-13T05:20:49.567Z,0.95
2023-01-13T05:23:34.745Z,0.45
2023-01-13T05:26:01.311Z,0.45
2023-01-13T05:28:32.217Z,0.63
2023-01-13T05:30:58.795Z,1.85
2023-01-13T05:33:25.394Z,2.15
2023-01-13T05:35:52.180Z,0.45
2023-01-13T05:38:18.814Z,0.70
2023-01-13T05:41:11.551Z,2.97
2023-01-13T05:43:38.080Z,0.60
2023-01-13T05:46:08.088Z,1.50
2023-01-13T05:48:37.573Z,1.27
2023-01-13T05:51:15.997Z,0.40
2023-01-13T05:53:42.737Z,1.45
2023-01-13T05:56:10.337Z,1.08
2023-01-13T05:58:37.239Z,1.48
2023-01-13T06:01:06.374Z,2.08
2023-01-13T06:03:33.270Z,2.03
2023-01-13T06:06:02.133Z,1.10
2023-01-13T06:08:29.653Z,1.45
2023-01-13T06:10:56.465Z,1.30
2023-01-13T06:13:23.238Z,1.00
2023-01-13T06:15:49.846Z,0.85
2023-01-13T06:18:16.522Z,2.20
2023-01-13T06:20:43.074Z,1.60
2023-01-13T06:23:11.753Z,0.93
2023-01-13T06:25:58.709Z,2.05
2023-01-13T06:28:25.370Z,2.30
2023-01-13T06:30:57.639Z,2.55
2023-01-13T06:33:30.030Z,1.25
2023-01-13T06:36:02.354Z,2.00
2023-01-13T06:38:33.815Z,4.45
2023-01-13T06:41:00.415Z,2.33
2023-01-13T06:43:27.069Z,1.95
2023-01-13T06:45:55.834Z,0.73
2023-01-13T06:48:25.573Z,1.25
2023-01-13T06:50:52.131Z,2.97
2023-01-13T06:53:20.136Z,2.92
2023-01-13T06:55:46.760Z,0.68
2023-01-13T06:58:13.471Z,1.85
2023-01-13T07:00:40.098Z,1.40
2023-01-13T07:03:16.420Z,1.13
2023-01-13T07:05:50.707Z,2.60
2023-01-13T07:08:17.419Z,0.95
2023-01-13T07:10:43.999Z,2.55
2023-01-13T07:13:29.422Z,2.55
2023-01-13T07:15:58.145Z,1.10
2023-01-13T07:18:31.982Z,3.42
2023-01-13T07:21:12.461Z,2.92
2023-01-13T07:23:40.734Z,3.00
2023-01-13T07:26:09.377Z,0.93
2023-01-13T07:28:39.719Z,3.58
2023-01-13T07:31:14.124Z,2.38
2023-01-13T07:33:43.364Z,1.65
2023-01-13T07:36:11.163Z,1.20
2023-01-13T07:38:39.810Z,1.90
2023-01-13T07:41:25.495Z,2.50
2023-01-13T07:43:52.477Z,0.60
2023-01-13T07:46:19.330Z,2.58
2023-01-13T07:48:47.984Z,0.93
2023-01-13T07:51:14.989Z,2.22
2023-01-13T07:53:41.531Z,2.38
2023-01-13T07:56:08.518Z,2.35
2023-01-13T07:58:36.422Z,3.75
2023-01-13T08:01:15.396Z,2.03
2023-01-13T08:03:42.461Z,4.72
2023-01-13T08:06:10.520Z,0.80
2023-01-13T08:08:37.817Z,0.47
2023-01-13T08:11:06.897Z,2.40
2023-01-13T08:13:33.822Z,2.55
2023-01-13T08:16:02.826Z,4.30
2023-01-13T08:18:33.871Z,2.47
2023-01-13T08:21:08.353Z,1.67
2023-01-13T08:23:35.548Z,2.13
2023-01-13T08:26:04.655Z,2.28
2023-01-13T08:28:31.437Z,2.60
2023-01-13T08:31:02.588Z,1.40
2023-01-13T08:33:29.772Z,2.30
2023-01-13T08:35:56.745Z,1.38
2023-01-13T08:38:24.370Z,1.73
2023-01-13T08:40:51.105Z,2.10
2023-01-13T08:43:17.759Z,1.70
2023-01-13T08:45:44.838Z,1.58
2023-01-13T08:48:11.578Z,0.70
2023-01-13T08:50:38.389Z,1.02
2023-01-13T08:53:04.984Z,2.08
2023-01-13T08:55:31.609Z,3.85
2023-01-13T08:58:14.067Z,2.15
2023-01-13T09:00:42.239Z,2.25
2023-01-13T09:03:08.912Z,2.60
2023-01-13T09:05:36.997Z,3.15
2023-01-13T09:08:03.600Z,2.22
2023-01-13T09:10:30.331Z,3.22
2023-01-13T09:13:16.613Z,2.05
2023-01-13T09:15:47.458Z,3.95
2023-01-13T09:18:14.620Z,1.63
2023-01-13T09:20:41.728Z,3.20
2023-01-13T09:23:10.715Z,2.17
2023-01-13T09:25:38.297Z,2.00
2023-01-13T09:28:07.019Z,2.90
2023-01-13T09:30:34.061Z,5.15
2023-01-13T09:33:19.420Z,3.85
2023-01-13T09:35:46.183Z,4.65
2023-01-13T09:38:13.411Z,4.15
2023-01-13T09:40:44.795Z,4.05
2023-01-13T09:43:47.328Z,3.17
2023-01-13T09:46:47.645Z,5.22
2023-01-13T09:49:28.435Z,3.92
2023-01-13T09:52:03.300Z,2.63
2023-01-13T09:54:52.031Z,3.90
2023-01-13T09:57:21.327Z,1.83
2023-01-13T09:59:49.407Z,3.22
2023-01-13T10:02:37.275Z,5.75
2023-01-13T10:05:04.316Z,4.75
2023-01-13T10:07:37.384Z,4.13
2023-01-13T10:10:19.883Z,4.95
2023-01-13T10:13:12.944Z,4.57
2023-01-13T10:15:47.310Z,5.70
2023-01-13T10:18:32.861Z,6.43
2023-01-13T10:21:31.145Z,4.10
2023-01-13T10:24:07.462Z,4.07
2023-01-13T10:26:59.605Z,4.05
2023-01-13T10:29:28.824Z,5.43
2023-01-13T10:31:57.973Z,5.00
2023-01-13T10:34:29.370Z,6.32
2023-01-13T10:37:00.621Z,6.68
2023-01-13T10:39:27.636Z,7.13
2023-01-13T10:42:05.652Z,7.28
2023-01-13T10:44:32.693Z,8.65
2023-01-13T10:46:59.823Z,7.30
2023-01-13T10:49:28.353Z,10.18
2023-01-13T10:51:55.090Z,5.85
2023-01-13T10:54:24.430Z,6.28
2023-01-13T10:57:16.528Z,4.55
2023-01-13T10:59:44.039Z,5.38
2023-01-13T11:02:25.910Z,5.47
2023-01-13T11:04:53.553Z,7.38
2023-01-13T11:07:32.344Z,5.07
2023-01-13T11:10:24.414Z,6.22
2023-01-13T11:13:13.784Z,7.63
2023-01-13T11:16:05.515Z,5.88
2023-01-13T11:18:38.031Z,4.03
2023-01-13T11:21:36.900Z,4.60
2023-01-13T11:24:20.701Z,6.85
2023-01-13T11:27:13.148Z,6.50
2023-01-13T11:30:09.874Z,3.53
2023-01-13T11:32:46.111Z,8.60
2023-01-13T11:35:21.887Z,7.45
2023-01-13T11:38:03.342Z,5.78
2023-01-13T11:40:41.496Z,3.63
2023-01-13T11:43:42.629Z,2.65
2023-01-13T11:46:11.822Z,5.88
2023-01-13T11:48:42.698Z,5.05
2023-01-13T11:51:15.208Z,6.90
2023-01-13T11:54:01.028Z,4.50
2023-01-13T11:56:39.210Z,7.82
2023-01-13T11:59:16.028Z,5.35
2023-01-13T12:02:21.114Z,9.18
2023-01-13T12:05:06.761Z,7.55
2023-01-13T12:08:00.745Z,5.93
2023-01-13T12:10:48.963Z,5.95
2023-01-13T12:13:34.648Z,5.53
2023-01-13T12:16:25.129Z,7.82
2023-01-13T12:18:51.682Z,7.35
2023-01-13T12:21:28.987Z,5.50
2023-01-13T12:24:06.211Z,9.52
2023-01-13T12:26:40.838Z,5.15
2023-01-13T12:29:19.218Z,9.20
2023-01-13T12:31:48.946Z,9.02
2023-01-13T12:34:37.451Z,7.53
2023-01-13T12:37:22.730Z,8.38
2023-01-13T12:40:23.511Z,4.63
2023-01-13T12:45:45.678Z,5.93
2023-01-13T12:48:53.125Z,4.72
2023-01-13T12:51:28.454Z,6.03
2023-01-13T12:53:56.436Z,8.30
2023-01-13T12:56:45.004Z,7.22
2023-01-13T12:59:17.642Z,4.38
2023-01-13T13:01:46.100Z,6.60
2023-01-13T13:04:17.234Z,8.05
2023-01-13T13:06:51.358Z,8.05
2023-01-13T13:09:30.037Z,10.77
2023-01-13T13:11:59.339Z,8.63
2023-01-13T13:14:37.982Z,6.68
2023-01-13T13:17:19.781Z,7.40
2023-01-13T13:19:49.178Z,8.18
2023-01-13T13:22:50.462Z,10.60
2023-01-13T13:25:23.590Z,12.75
2023-01-13T13:28:17.657Z,6.50
2023-01-13T13:30:53.910Z,6.97
2023-01-13T13:33:35.091Z,7.78
2023-01-13T13:36:35.532Z,12.60
2023-01-13T13:39:37.598Z,7.53
2023-01-13T13:42:37.062Z,7.95
2023-01-13T13:45:40.118Z,2.67
2023-01-13T13:48:34.294Z,5.90
2023-01-13T13:51:04.751Z,8.15
2023-01-13T13:53:35.709Z,6.93
2023-01-13T13:56:04.700Z,9.60
2023-01-13T13:58:35.669Z,5.60
2023-01-13T14:01:04.397Z,4.03
2023-01-13T14:03:34.616Z,3.88
2023-01-13T14:06:07.213Z,7.10
2023-01-13T14:08:37.525Z,7.95
2023-01-13T14:11:26.050Z,9.27
2023-01-13T14:14:15.388Z,8.50
2023-01-13T14:16:42.104Z,7.15
2023-01-13T14:19:33.831Z,10.15
2023-01-13T14:22:02.749Z,7.30
2023-01-13T14:24:31.344Z,10.05
2023-01-13T14:27:14.223Z,8.10
2023-01-13T14:29:41.256Z,8.00
2023-01-13T14:32:08.518Z,8.68
2023-01-13T14:34:35.987Z,7.25
2023-01-13T14:37:03.809Z,8.38
2023-01-13T14:39:38.807Z,8.07
2023-01-13T14:42:12.645Z,8.35
2023-01-13T14:44:45.220Z,9.38
2023-01-13T14:47:26.835Z,8.93
2023-01-13T14:50:05.811Z,4.13
2023-01-13T14:52:46.409Z,9.73
2023-01-13T14:55:25.310Z,12.52
2023-01-13T14:57:52.338Z,5.55
2023-01-13T15:00:24.486Z,8.63
2023-01-13T15:02:57.254Z,4.50
2023-01-13T15:05:23.954Z,7.15
2023-01-13T15:07:56.053Z,7.03
2023-01-13T15:10:33.352Z,7.53
2023-01-13T15:13:03.490Z,6.93
2023-01-13T15:15:36.462Z,5.60
2023-01-13T15:18:13.792Z,6.82
2023-01-13T15:20:41.419Z,7.00
2023-01-13T15:23:08.280Z,7.88
2023-01-13T15:25:37.245Z,3.83
2023-01-13T15:28:05.124Z,6.53
2023-01-13T15:30:32.425Z,6.93
2023-01-13T15:32:59.293Z,2.78
2023-01-13T15:35:28.184Z,8.93
2023-01-13T15:37:56.843Z,6.82
2023-01-13T15:40:30.559Z,7.90
2023-01-13T15:43:15.575Z,6.10
2023-01-13T15:46:00.940Z,7.72
2023-01-13T15:48:32.945Z,10.52
2023-01-13T15:51:00.823Z,6.47
2023-01-13T15:53:28.710Z,5.18
2023-01-13T15:55:57.887Z,6.10
2023-01-13T15:58:28.304Z,6.60
2023-01-13T16:03:22.215Z,5.47
2023-01-13T16:05:49.262Z,6.13
2023-01-13T16:08:18.484Z,5.50
2023-01-13T16:10:46.276Z,6.22
2023-01-13T16:13:13.389Z,8.20
2023-01-13T16:15:46.563Z,7.97
2023-01-13T16:18:26.601Z,10.23
2023-01-13T16:20:59.317Z,9.75
2023-01-13T16:23:26.456Z,6.53
2023-01-13T16:25:53.696Z,8.35
2023-01-13T16:28:31.483Z,7.00
2023-01-13T16:30:59.033Z,5.43
2023-01-13T16:33:26.463Z,6.32
2023-01-13T16:36:10.674Z,9.88
2023-01-13T16:38:47.772Z,7.82
2023-01-13T16:41:18.269Z,7.72
2023-01-13T16:43:52.633Z,7.90
2023-01-13T16:46:28.492Z,6.30
2023-01-13T16:48:58.439Z,8.32
2023-01-13T16:51:25.854Z,8.52
2023-01-13T16:53:59.563Z,13.15
2023-01-13T16:56:42.625Z,10.82
2023-01-13T16:59:42.992Z,7.78
2023-01-13T17:08:05.151Z,6.55
2023-01-13T17:10:32.562Z,7.85
2023-01-13T17:13:16.037Z,5.70
2023-01-13T17:15:47.395Z,10.00
2023-01-13T17:18:14.695Z,10.02
2023-01-13T17:20:42.087Z,8.82
2023-01-13T17:23:10.305Z,10.10
2023-01-13T17:25:37.209Z,9.02
2023-01-13T17:28:03.913Z,10.32
2023-01-13T17:30:30.725Z,8.38
2023-01-13T17:32:57.296Z,8.25
2023-01-13T17:35:25.366Z,9.57
2023-01-13T17:37:53.193Z,9.20
2023-01-13T17:40:20.709Z,12.27
2023-01-13T17:42:47.963Z,6.38
2023-01-13T17:45:17.989Z,7.20
2023-01-13T17:47:47.277Z,9.45
2023-01-13T17:50:14.797Z,7.65
2023-01-13T17:52:41.828Z,5.57
2023-01-13T17:55:09.774Z,6.80
2023-01-13T17:57:43.924Z,8.18
2023-01-13T18:00:20.591Z,6.97
2023-01-13T18:02:50.740Z,7.50
2023-01-13T18:05:20.731Z,11.63
2023-01-13T18:07:48.349Z,10.30
2023-01-13T18:10:16.068Z,8.25
2023-01-13T18:12:42.866Z,5.97
2023-01-13T18:15:09.626Z,6.30
2023-01-13T18:17:36.624Z,7.50
2023-01-13T18:20:22.275Z,5.65
2023-01-13T18:23:07.545Z,7.47
2023-01-13T18:25:52.623Z,10.63
2023-01-13T18:28:20.142Z,8.57
2023-01-13T18:30:48.459Z,6.40
2023-01-13T18:33:15.368Z,8.45
2023-01-13T18:35:42.004Z,11.30
2023-01-13T18:38:09.106Z,13.02
2023-01-13T18:40:38.979Z,6.18
2023-01-13T18:43:05.620Z,11.07
2023-01-13T18:45:32.505Z,10.25
2023-01-13T18:48:01.588Z,10.55
2023-01-13T18:50:29.039Z,12.75
2023-01-13T18:52:56.158Z,12.82
2023-01-13T18:55:23.229Z,13.45
2023-01-13T18:57:51.094Z,11.77
2023-01-13T19:00:19.971Z,11.00
2023-01-13T19:02:47.668Z,10.10
2023-01-13T19:05:15.241Z,8.77
2023-01-13T19:07:46.536Z,7.45
2023-01-13T19:10:13.465Z,12.50
2023-01-13T19:12:40.183Z,8.07
2023-01-13T19:15:09.069Z,10.52
2023-01-13T19:17:35.979Z,14.10
2023-01-13T19:20:04.476Z,20.60
2023-01-13T19:22:34.470Z,10.27
2023-01-13T19:25:02.434Z,7.47
2023-01-13T19:27:29.717Z,12.10
2023-01-13T19:30:01.111Z,12.18
2023-01-13T19:32:31.137Z,9.77
2023-01-13T19:34:59.841Z,11.23
2023-01-13T19:37:34.150Z,11.55
2023-01-13T19:40:00.839Z,8.23
2023-01-13T19:43:03.563Z,11.45
2023-01-13T19:45:31.497Z,12.15
2023-01-13T19:48:05.288Z,14.18
2023-01-13T19:50:35.861Z,14.68
2023-01-13T19:53:02.463Z,8.52
2023-01-13T19:55:30.321Z,8.73
2023-01-13T19:57:56.990Z,9.45
2023-01-13T20:00:23.819Z,9.05
2023-01-13T20:02:52.992Z,9.82
2023-01-13T20:05:22.305Z,11.75
2023-01-13T20:07:50.204Z,6.30
2023-01-13T20:10:18.554Z,13.80
2023-01-13T20:12:45.176Z,9.70
2023-01-13T20:15:12.462Z,9.25
2023-01-13T20:17:40.513Z,8.75
2023-01-13T20:20:09.726Z,9.30
2023-01-13T20:22:37.835Z,8.10
2023-01-13T20:25:05.418Z,8.07
2023-01-13T20:27:32.101Z,10.02
2023-01-13T20:29:59.003Z,10.68
2023-01-13T20:32:25.855Z,9.30
2023-01-13T20:34:52.565Z,10.43
2023-01-13T20:37:19.395Z,8.27
2023-01-13T20:39:46.951Z,8.82
2023-01-13T20:42:29.164Z,7.30
2023-01-13T20:44:57.119Z,7.65
2023-01-13T20:47:23.919Z,9.18
2023-01-13T20:49:50.576Z,8.85
2023-01-13T20:52:18.116Z,8.10
2023-01-13T20:54:44.770Z,10.63
2023-01-13T20:57:12.076Z,7.63
2023-01-13T20:59:39.287Z,8.52
2023-01-13T21:02:11.077Z,10.23
2023-01-13T21:04:37.638Z,8.73
2023-01-13T21:07:04.241Z,8.10
2023-01-13T21:09:30.897Z,7.50
2023-01-13T21:12:16.674Z,9.63
2023-01-13T21:15:01.533Z,7.88
2023-01-13T21:17:46.861Z,10.55
2023-01-13T21:20:15.028Z,12.45
2023-01-13T21:22:47.494Z,8.70
2023-01-13T21:25:15.238Z,9.63
2023-01-13T21:27:44.013Z,5.60
2023-01-13T21:30:15.286Z,10.75
2023-01-13T21:32:47.296Z,9.98
2023-01-13T21:35:14.729Z,10.20
2023-01-13T21:37:43.315Z,8.40
2023-01-13T21:40:12.928Z,9.02
2023-01-13T21:42:58.870Z,13.43
2023-01-13T21:45:44.026Z,10.18
2023-01-13T21:48:10.807Z,8.70
2023-01-13T21:50:38.329Z,10.45
2023-01-13T21:53:05.712Z,11.38
2023-01-13T21:55:32.930Z,10.15
2023-01-13T21:58:11.742Z,16.58
2023-01-13T22:00:40.100Z,8.73
2023-01-13T22:03:08.670Z,9.68
2023-01-13T22:05:36.270Z,6.88
2023-01-13T22:08:03.193Z,13.00
2023-01-13T22:10:30.722Z,7.75
2023-01-13T22:13:22.012Z,8.52
2023-01-13T22:15:48.757Z,13.15
2023-01-13T22:18:15.447Z,10.95
2023-01-13T22:20:42.136Z,8.20
2023-01-13T22:23:08.818Z,8.27
2023-01-13T22:25:35.583Z,11.18
2023-01-13T22:28:06.042Z,15.88
2023-01-13T22:30:33.397Z,12.25
2023-01-13T22:33:00.551Z,11.27
2023-01-13T22:35:27.264Z,14.38
2023-01-13T22:37:53.904Z,12.00
2023-01-13T22:40:20.546Z,20.80
2023-01-13T22:42:49.974Z,8.85
2023-01-13T22:45:16.813Z,12.63
2023-01-13T22:47:52.405Z,13.98
2023-01-13T22:50:20.956Z,12.10
2023-01-13T22:52:50.275Z,14.18
2023-01-13T22:55:21.852Z,16.95
2023-01-13T22:57:55.062Z,18.90
2023-01-13T23:00:22.177Z,13.68
2023-01-13T23:02:52.445Z,15.43
2023-01-13T23:05:19.323Z,20.40
2023-01-13T23:07:46.130Z,16.63
2023-01-13T23:10:15.933Z,19.50
2023-01-13T23:12:42.605Z,23.37
2023-01-13T23:15:14.220Z,14.68
2023-01-13T23:17:40.930Z,20.90
2023-01-13T23:20:08.199Z,16.65
2023-01-13T23:22:38.597Z,19.20
2023-01-13T23:25:05.524Z,15.88
2023-01-13T23:27:32.068Z,15.98
2023-01-13T23:29:58.640Z,13.25
2023-01-13T23:32:25.158Z,14.00
2023-01-13T23:34:51.673Z,18.13
2023-01-13T23:37:18.196Z,13.65
2023-01-13T23:39:44.693Z,16.02
2023-01-13T23:42:11.176Z,27.33
2023-01-13T23:44:37.666Z,13.52
2023-01-13T23:47:04.299Z,8.35
2023-01-13T23:49:31.415Z,15.65
2023-01-13T23:51:58.359Z,14.27
2023-01-13T23:54:24.922Z,19.48
2023-01-13T23:56:52.596Z,21.45
2023-01-13T23:59:19.979Z,13.52
